createdAt,value
2019-06-10T00:00:22.494Z,0.00
2019-06-10T00:01:22.500Z,0.00
2019-06-10T00:02:22.474Z,0.00
2019-06-10T00:03:22.459Z,0.00
2019-06-10T00:04:22.461Z,0.00
2019-06-10T00:05:22.476Z,0.00
2019-06-10T00:06:22.440Z,0.00
2019-06-10T00:07:22.429Z,0.00
2019-06-10T00:08:22.419Z,0.00
2019-06-10T00:09:22.397Z,0.00
2019-06-10T00:10:22.426Z,0.00
2019-06-10T00:11:22.389Z,0.00
2019-06-10T00:12:22.405Z,0.00
2019-06-10T00:13:22.356Z,0.00
2019-06-10T00:14:22.354Z,0.00
2019-06-10T00:15:22.335Z,0.00
2019-06-10T00:16:22.327Z,0.00
2019-06-10T00:17:22.320Z,0.00
2019-06-10T00:18:35.407Z,0.00
2019-06-10T00:19:23.295Z,0.00
2019-06-10T00:20:22.366Z,0.00
2019-06-10T00:21:22.316Z,0.00
2019-06-10T00:22:22.262Z,0.00
2019-06-10T00:23:22.366Z,0.00
2019-06-10T00:24:22.275Z,0.00
2019-06-10T00:25:22.237Z,0.00
2019-06-10T00:26:22.222Z,0.00
2019-06-10T00:27:22.212Z,0.00
2019-06-10T00:28:22.196Z,0.00
2019-06-10T00:29:22.491Z,0.00
2019-06-10T00:30:23.224Z,0.00
2019-06-10T00:31:22.189Z,0.00
2019-06-10T00:32:22.162Z,0.00
2019-06-10T00:33:22.144Z,0.00
2019-06-10T00:34:22.134Z,0.00
2019-06-10T00:35:22.143Z,0.00
2019-06-10T00:36:22.187Z,0.00
2019-06-10T00:37:22.115Z,0.00
2019-06-10T00:38:22.092Z,0.00
2019-06-10T00:39:22.366Z,0.00
2019-06-10T00:40:22.062Z,0.00
2019-06-10T00:41:22.142Z,0.00
2019-06-10T00:42:22.099Z,0.00
2019-06-10T00:43:22.035Z,0.00
2019-06-10T00:44:22.033Z,0.00
2019-06-10T00:45:22.013Z,0.00
2019-06-10T00:46:22.063Z,0.00
2019-06-10T00:47:21.997Z,0.00
2019-06-10T00:48:28.396Z,0.00
2019-06-10T00:49:23.041Z,0.00
2019-06-10T00:50:21.959Z,0.00
2019-06-10T00:51:21.949Z,0.00
2019-06-10T00:52:21.978Z,0.00
2019-06-10T00:53:21.940Z,0.00
2019-06-10T00:54:22.116Z,0.00
2019-06-10T00:55:21.913Z,0.00
2019-06-10T00:56:21.959Z,0.00
2019-06-10T00:57:21.887Z,0.00
2019-06-10T00:58:21.929Z,0.00
2019-06-10T00:59:22.271Z,0.00
2019-06-10T01:00:25.545Z,0.00
2019-06-10T01:01:22.106Z,0.00
2019-06-10T01:02:21.827Z,0.00
2019-06-10T01:03:21.907Z,0.00
2019-06-10T01:04:21.864Z,0.00
2019-06-10T01:05:21.799Z,0.00
2019-06-10T01:06:21.798Z,0.00
2019-06-10T01:07:21.968Z,0.00
2019-06-10T01:08:21.777Z,0.00
2019-06-10T01:09:22.028Z,0.00
2019-06-10T01:10:22.096Z,0.00
2019-06-10T01:11:27.025Z,0.00
2019-06-10T01:12:22.738Z,0.00
2019-06-10T01:13:21.755Z,0.00
2019-06-10T01:14:21.844Z,0.00
2019-06-10T01:15:21.902Z,0.00
2019-06-10T01:16:21.876Z,0.00
2019-06-10T01:17:21.665Z,0.00
2019-06-10T01:18:34.601Z,0.00
2019-06-10T01:19:23.963Z,0.00
2019-06-10T01:20:21.653Z,0.00
2019-06-10T01:21:21.970Z,0.00
2019-06-10T01:22:21.612Z,0.00
2019-06-10T01:23:21.980Z,0.00
2019-06-10T01:24:22.338Z,0.00
2019-06-10T01:25:21.756Z,0.00
2019-06-10T01:26:21.818Z,0.00
2019-06-10T01:27:21.565Z,0.00
2019-06-10T01:28:22.214Z,0.00
2019-06-10T01:29:21.615Z,0.00
2019-06-10T01:30:26.375Z,0.00
2019-06-10T01:31:24.341Z,0.00
2019-06-10T01:32:22.296Z,0.00
2019-06-10T01:33:21.491Z,0.00
2019-06-10T01:34:21.933Z,0.00
2019-06-10T01:35:21.504Z,0.00
2019-06-10T01:36:21.480Z,0.00
2019-06-10T01:37:21.917Z,0.00
2019-06-10T01:38:21.449Z,0.00
2019-06-10T01:39:22.659Z,0.00
2019-06-10T01:40:21.414Z,0.00
2019-06-10T01:41:21.619Z,0.00
2019-06-10T01:42:21.710Z,0.00
2019-06-10T01:43:21.595Z,0.00
2019-06-10T01:44:22.088Z,0.00
2019-06-10T01:45:21.404Z,0.00
2019-06-10T01:46:21.389Z,0.00
2019-06-10T01:47:21.692Z,0.00
2019-06-10T01:48:21.329Z,0.00
2019-06-10T01:49:21.571Z,0.00
2019-06-10T01:50:21.915Z,0.00
2019-06-10T01:51:21.611Z,0.00
2019-06-10T01:52:21.565Z,0.00
2019-06-10T01:53:22.066Z,0.00
2019-06-10T01:54:21.494Z,0.00
2019-06-10T01:55:21.931Z,0.00
2019-06-10T01:56:21.635Z,0.00
2019-06-10T01:57:21.890Z,0.00
2019-06-10T01:58:23.594Z,0.00
2019-06-10T01:59:22.000Z,0.00
2019-06-10T02:00:25.318Z,0.00
2019-06-10T02:01:23.352Z,0.00
2019-06-10T02:02:23.783Z,0.00
2019-06-10T02:03:23.804Z,0.00
2019-06-10T02:04:22.208Z,0.00
2019-06-10T02:05:22.866Z,0.00
2019-06-10T02:06:25.302Z,0.00
2019-06-10T02:07:23.034Z,0.00
2019-06-10T02:08:22.204Z,0.00
2019-06-10T02:09:23.203Z,0.00
2019-06-10T02:10:23.010Z,0.00
2019-06-10T02:11:23.479Z,0.00
2019-06-10T02:12:24.047Z,0.00
2019-06-10T02:13:22.080Z,0.00
2019-06-10T02:14:24.192Z,0.00
2019-06-10T02:15:22.611Z,0.00
2019-06-10T02:16:24.018Z,0.00
2019-06-10T02:17:23.836Z,0.00
2019-06-10T02:18:22.483Z,0.00
2019-06-10T02:19:22.953Z,0.00
2019-06-10T02:20:23.824Z,0.00
2019-06-10T02:21:24.261Z,0.00
2019-06-10T02:22:24.232Z,0.00
2019-06-10T02:23:22.965Z,0.00
2019-06-10T02:24:23.131Z,0.00
2019-06-10T02:25:21.684Z,0.00
2019-06-10T02:26:23.258Z,0.00
2019-06-10T02:27:21.876Z,0.00
2019-06-10T02:28:22.019Z,0.00
2019-06-10T02:29:22.248Z,0.00
2019-06-10T02:30:38.622Z,0.00
2019-06-10T02:31:30.450Z,0.00
2019-06-10T02:32:31.314Z,0.00
2019-06-10T02:33:30.131Z,0.00
2019-06-10T02:34:26.853Z,0.00
2019-06-10T02:35:30.613Z,0.00
2019-06-10T02:36:30.536Z,0.00
2019-06-10T02:37:32.652Z,0.00
2019-06-10T02:38:32.799Z,0.00
2019-06-10T02:39:28.051Z,0.00
2019-06-10T02:40:31.337Z,0.00
2019-06-10T02:41:29.539Z,0.00
2019-06-10T02:42:29.871Z,0.00
2019-06-10T02:43:29.393Z,0.00
2019-06-10T02:44:32.171Z,0.00
2019-06-10T02:45:30.739Z,0.00
2019-06-10T02:46:30.510Z,0.00
2019-06-10T02:47:26.371Z,0.00
2019-06-10T02:48:27.913Z,0.00
2019-06-10T02:49:45.241Z,0.00
2019-06-10T02:50:29.835Z,0.00
2019-06-10T02:51:24.732Z,0.00
2019-06-10T02:52:31.549Z,0.00
2019-06-10T02:53:27.744Z,0.00
2019-06-10T02:54:28.906Z,0.00
2019-06-10T02:55:30.127Z,0.00
2019-06-10T02:56:25.360Z,0.00
2019-06-10T02:57:29.490Z,0.00
2019-06-10T02:58:24.225Z,0.00
2019-06-10T02:59:26.625Z,0.00
2019-06-10T03:00:34.287Z,0.00
2019-06-10T03:01:23.345Z,0.00
2019-06-10T03:02:23.743Z,4.00
2019-06-10T03:03:32.790Z,4.00
2019-06-10T03:04:26.727Z,0.00
2019-06-10T03:05:29.711Z,4.00
2019-06-10T03:06:29.770Z,4.00
2019-06-10T03:07:28.109Z,8.00
2019-06-10T03:08:26.624Z,12.00
2019-06-10T03:09:26.402Z,12.00
2019-06-10T03:10:29.603Z,16.00
2019-06-10T03:11:27.247Z,20.00
2019-06-10T03:12:24.271Z,24.00
2019-06-10T03:13:22.726Z,28.00
2019-06-10T03:14:22.637Z,32.00
2019-06-10T03:15:20.394Z,36.00
2019-06-10T03:16:22.668Z,40.00
2019-06-10T03:17:20.380Z,40.00
2019-06-10T03:18:20.362Z,40.00
2019-06-10T03:19:39.771Z,40.00
2019-06-10T03:20:24.318Z,44.00
2019-06-10T03:21:23.061Z,48.00
2019-06-10T03:22:22.580Z,60.00
2019-06-10T03:23:22.702Z,72.00
2019-06-10T03:24:22.386Z,84.00
2019-06-10T03:25:22.613Z,104.00
2019-06-10T03:26:21.904Z,120.00
2019-06-10T03:27:21.149Z,144.00
2019-06-10T03:28:22.735Z,168.00
2019-06-10T03:29:21.247Z,192.00
2019-06-10T03:30:35.829Z,208.00
2019-06-10T03:31:29.967Z,224.00
2019-06-10T03:32:25.015Z,240.00
2019-06-10T03:33:27.669Z,264.00
2019-06-10T03:34:30.004Z,300.00
2019-06-10T03:35:23.815Z,320.00
2019-06-10T03:36:20.215Z,328.00
2019-06-10T03:37:20.955Z,328.00
2019-06-10T03:38:20.884Z,348.00
2019-06-10T03:39:21.382Z,348.00
2019-06-10T03:40:28.062Z,352.00
2019-06-10T03:41:21.246Z,360.00
2019-06-10T03:42:21.375Z,428.00
2019-06-10T03:43:21.418Z,528.00
2019-06-10T03:44:23.493Z,588.00
2019-06-10T03:45:21.254Z,648.00
2019-06-10T03:46:21.726Z,704.00
2019-06-10T03:47:21.123Z,756.00
2019-06-10T03:48:21.128Z,768.00
2019-06-10T03:49:21.851Z,812.00
2019-06-10T03:50:21.890Z,912.00
2019-06-10T03:51:21.183Z,1004.00
2019-06-10T03:52:22.471Z,1064.00
2019-06-10T03:53:21.261Z,1068.00
2019-06-10T03:54:22.761Z,1112.00
2019-06-10T03:55:22.973Z,1252.00
2019-06-10T03:56:23.548Z,1412.00
2019-06-10T03:57:21.759Z,1556.00
2019-06-10T03:58:20.048Z,1688.00
2019-06-10T03:59:21.724Z,1876.00
2019-06-10T04:00:19.901Z,2056.00
2019-06-10T04:01:19.889Z,2168.00
2019-06-10T04:02:22.330Z,2288.00
2019-06-10T04:03:19.956Z,2284.00
2019-06-10T04:04:22.419Z,2196.00
2019-06-10T04:05:19.859Z,2096.00
2019-06-10T04:06:19.882Z,2172.00
2019-06-10T04:07:20.875Z,2284.00
2019-06-10T04:08:22.038Z,2480.00
2019-06-10T04:09:19.808Z,2628.00
2019-06-10T04:10:19.821Z,2892.00
2019-06-10T04:11:19.787Z,2988.00
2019-06-10T04:12:19.830Z,3116.00
2019-06-10T04:13:19.760Z,3100.00
2019-06-10T04:14:22.041Z,3208.00
2019-06-10T04:15:19.800Z,3012.00
2019-06-10T04:16:22.212Z,2800.00
2019-06-10T04:17:19.719Z,2716.00
2019-06-10T04:18:19.801Z,2684.00
2019-06-10T04:19:19.705Z,2644.00
2019-06-10T04:20:19.840Z,2680.00
2019-06-10T04:21:22.312Z,2652.00
2019-06-10T04:22:19.663Z,2824.00
2019-06-10T04:23:19.731Z,3056.00
2019-06-10T04:24:22.709Z,3236.00
2019-06-10T04:25:19.908Z,3200.00
2019-06-10T04:26:19.807Z,2816.00
2019-06-10T04:27:20.430Z,2612.00
2019-06-10T04:28:19.803Z,2240.00
2019-06-10T04:29:20.022Z,1880.00
2019-06-10T04:30:24.260Z,1968.00
2019-06-10T04:31:21.298Z,2724.00
2019-06-10T04:32:20.263Z,2912.00
2019-06-10T04:33:22.861Z,3116.00
2019-06-10T04:34:20.556Z,3020.00
2019-06-10T04:35:21.000Z,3096.00
2019-06-10T04:36:21.017Z,3536.00
2019-06-10T04:37:20.373Z,3632.00
2019-06-10T04:38:20.971Z,3996.00
2019-06-10T04:39:20.495Z,4184.00
2019-06-10T04:40:21.092Z,4520.00
2019-06-10T04:41:20.493Z,4848.00
2019-06-10T04:42:20.890Z,5416.00
2019-06-10T04:43:20.417Z,5900.00
2019-06-10T04:44:20.581Z,5632.00
2019-06-10T04:45:20.538Z,5464.00
2019-06-10T04:46:20.648Z,5788.00
2019-06-10T04:47:20.564Z,6472.00
2019-06-10T04:48:21.225Z,7296.00
2019-06-10T04:49:20.636Z,8112.00
2019-06-10T04:50:27.064Z,8600.00
2019-06-10T04:51:22.963Z,9364.00
2019-06-10T04:52:20.663Z,9968.00
2019-06-10T04:53:21.335Z,11656.00
2019-06-10T04:54:20.726Z,11964.00
2019-06-10T04:55:21.210Z,14448.00
2019-06-10T04:56:19.711Z,9440.00
2019-06-10T04:57:19.302Z,12004.00
2019-06-10T04:58:19.519Z,11472.00
2019-06-10T04:59:19.277Z,9012.00
2019-06-10T05:00:19.312Z,9896.00
2019-06-10T05:01:19.279Z,9792.00
2019-06-10T05:02:19.425Z,9568.00
2019-06-10T05:03:19.278Z,9608.00
2019-06-10T05:04:19.268Z,9460.00
2019-06-10T05:05:19.208Z,11964.00
2019-06-10T05:06:19.198Z,13272.00
2019-06-10T05:07:19.181Z,14552.00
2019-06-10T05:08:19.191Z,19936.00
2019-06-10T05:09:19.230Z,20320.00
2019-06-10T05:10:19.201Z,19328.00
2019-06-10T05:11:19.166Z,19392.00
2019-06-10T05:12:19.251Z,19296.00
2019-06-10T05:13:19.356Z,18912.00
2019-06-10T05:14:19.397Z,17568.00
2019-06-10T05:15:19.649Z,11636.00
2019-06-10T05:16:19.559Z,18016.00
2019-06-10T05:17:19.396Z,19648.00
2019-06-10T05:18:19.524Z,16896.00
2019-06-10T05:19:19.832Z,19104.00
2019-06-10T05:20:19.754Z,13128.00
2019-06-10T05:21:19.679Z,21152.00
2019-06-10T05:22:19.591Z,10140.00
2019-06-10T05:23:19.622Z,24320.00
2019-06-10T05:24:19.746Z,11112.00
2019-06-10T05:25:20.402Z,26720.00
2019-06-10T05:26:20.018Z,14344.00
2019-06-10T05:27:20.458Z,25664.00
2019-06-10T05:28:19.963Z,12284.00
2019-06-10T05:29:20.154Z,21376.00
2019-06-10T05:30:20.024Z,30016.00
2019-06-10T05:31:20.179Z,19456.00
2019-06-10T05:32:20.141Z,27168.00
2019-06-10T05:33:20.256Z,31936.00
2019-06-10T05:34:18.925Z,26784.00
2019-06-10T05:35:18.895Z,16412.00
2019-06-10T05:36:18.883Z,27168.00
2019-06-10T05:37:18.855Z,31456.00
2019-06-10T05:38:18.844Z,34528.00
2019-06-10T05:39:18.853Z,16084.00
2019-06-10T05:40:19.164Z,39616.00
2019-06-10T05:41:18.822Z,41472.00
2019-06-10T05:42:19.757Z,38880.00
2019-06-10T05:43:18.783Z,38720.00
2019-06-10T05:44:18.791Z,38400.00
2019-06-10T05:45:19.064Z,18688.00
2019-06-10T05:46:18.813Z,17664.00
2019-06-10T05:47:18.741Z,30464.00
2019-06-10T05:48:18.800Z,38720.00
2019-06-10T05:49:18.723Z,36832.00
2019-06-10T05:50:18.722Z,34016.00
2019-06-10T05:51:18.711Z,45408.00
2019-06-10T05:52:18.720Z,28640.00
2019-06-10T05:53:18.681Z,18464.00
2019-06-10T05:54:18.669Z,39552.00
2019-06-10T05:55:18.691Z,47264.00
2019-06-10T05:56:18.649Z,49888.00
2019-06-10T05:57:18.640Z,47872.00
2019-06-10T05:58:18.622Z,39264.00
2019-06-10T05:59:18.609Z,16768.00
2019-06-10T06:00:18.600Z,22976.00
2019-06-10T06:01:18.631Z,21952.00
2019-06-10T06:02:18.580Z,29856.00
2019-06-10T06:03:18.571Z,21696.00
2019-06-10T06:04:18.567Z,29568.00
2019-06-10T06:05:18.552Z,24896.00
2019-06-10T06:06:18.593Z,21696.00
2019-06-10T06:07:18.518Z,16768.00
2019-06-10T06:08:18.510Z,15000.00
2019-06-10T06:09:18.520Z,13816.00
2019-06-10T06:10:18.503Z,18080.00
2019-06-10T06:11:18.489Z,14912.00
2019-06-10T06:12:18.518Z,17792.00
2019-06-10T06:13:18.576Z,18336.00
2019-06-10T06:14:18.459Z,19776.00
2019-06-10T06:15:18.438Z,19424.00
2019-06-10T06:16:18.425Z,20416.00
2019-06-10T06:17:18.432Z,27936.00
2019-06-10T06:18:18.487Z,26432.00
2019-06-10T06:19:18.389Z,20384.00
2019-06-10T06:20:18.385Z,19392.00
2019-06-10T06:21:26.687Z,18208.00
2019-06-10T06:22:19.356Z,17760.00
2019-06-10T06:23:18.357Z,33728.00
2019-06-10T06:24:18.374Z,20288.00
2019-06-10T06:25:18.331Z,14616.00
2019-06-10T06:26:18.379Z,16288.00
2019-06-10T06:27:18.307Z,19328.00
2019-06-10T06:28:18.306Z,23712.00
2019-06-10T06:29:18.310Z,64544.00
2019-06-10T06:30:18.983Z,66304.00
2019-06-10T06:31:18.323Z,23808.00
2019-06-10T06:32:18.327Z,25376.00
2019-06-10T06:33:18.235Z,21920.00
2019-06-10T06:34:18.227Z,22944.00
2019-06-10T06:35:18.265Z,69568.00
2019-06-10T06:36:18.235Z,20608.00
2019-06-10T06:37:18.249Z,18144.00
2019-06-10T06:38:18.190Z,17568.00
2019-06-10T06:39:18.190Z,19200.00
2019-06-10T06:40:18.176Z,21248.00
2019-06-10T06:41:18.153Z,20800.00
2019-06-10T06:42:18.143Z,20832.00
2019-06-10T06:43:18.167Z,17984.00
2019-06-10T06:44:18.114Z,18784.00
2019-06-10T06:45:18.104Z,24608.00
2019-06-10T06:46:18.104Z,20768.00
2019-06-10T06:47:18.084Z,29632.00
2019-06-10T06:48:18.082Z,42688.00
2019-06-10T06:49:18.113Z,26624.00
2019-06-10T06:50:18.053Z,26176.00
2019-06-10T06:51:30.404Z,31776.00
2019-06-10T06:52:34.679Z,84480.00
2019-06-10T06:53:28.805Z,20992.00
2019-06-10T06:54:19.024Z,21184.00
2019-06-10T06:55:18.043Z,35008.00
2019-06-10T06:56:18.033Z,23008.00
2019-06-10T06:57:17.983Z,19968.00
2019-06-10T06:58:18.232Z,42112.00
2019-06-10T06:59:17.952Z,20512.00
2019-06-10T07:00:38.780Z,18176.00
2019-06-10T07:01:18.971Z,22336.00
2019-06-10T07:02:17.939Z,19776.00
2019-06-10T07:03:18.311Z,20224.00
2019-06-10T07:04:17.902Z,19936.00
2019-06-10T07:05:17.942Z,48064.00
2019-06-10T07:06:17.883Z,40800.00
2019-06-10T07:07:18.209Z,22912.00
2019-06-10T07:08:17.859Z,18432.00
2019-06-10T07:09:17.861Z,22208.00
2019-06-10T07:10:17.868Z,24256.00
2019-06-10T07:11:17.828Z,90048.00
2019-06-10T07:12:17.848Z,91648.00
2019-06-10T07:13:17.848Z,83360.00
2019-06-10T07:14:24.825Z,19168.00
2019-06-10T07:15:17.799Z,19616.00
2019-06-10T07:16:17.779Z,26496.00
2019-06-10T07:17:17.854Z,25088.00
2019-06-10T07:18:17.767Z,23392.00
2019-06-10T07:19:17.810Z,25120.00
2019-06-10T07:20:17.731Z,22560.00
2019-06-10T07:21:17.811Z,19712.00
2019-06-10T07:22:17.806Z,21952.00
2019-06-10T07:23:17.747Z,84736.00
2019-06-10T07:24:17.707Z,27552.00
2019-06-10T07:25:17.801Z,93600.00
2019-06-10T07:26:17.678Z,23968.00
2019-06-10T07:27:17.858Z,21312.00
2019-06-10T07:28:17.742Z,28160.00
2019-06-10T07:29:18.134Z,31296.00
2019-06-10T07:30:17.714Z,96512.00
2019-06-10T07:31:24.079Z,36768.00
2019-06-10T07:32:18.627Z,22496.00
2019-06-10T07:33:17.598Z,19968.00
2019-06-10T07:34:17.620Z,94304.00
2019-06-10T07:35:17.588Z,27616.00
2019-06-10T07:36:17.581Z,70304.00
2019-06-10T07:37:17.546Z,50528.00
2019-06-10T07:38:17.553Z,12628.00
2019-06-10T07:39:17.662Z,15972.00
2019-06-10T07:40:17.699Z,53728.00
2019-06-10T07:41:17.580Z,27200.00
2019-06-10T07:42:17.572Z,30144.00
2019-06-10T07:43:17.874Z,30816.00
2019-06-10T07:44:39.052Z,24320.00
2019-06-10T07:45:17.476Z,25632.00
2019-06-10T07:46:17.812Z,17420.00
2019-06-10T07:47:17.545Z,19072.00
2019-06-10T07:48:17.434Z,48832.00
2019-06-10T07:49:17.439Z,18528.00
2019-06-10T07:50:17.493Z,18912.00
2019-06-10T07:51:17.410Z,85856.00
2019-06-10T07:52:19.912Z,68736.00
2019-06-10T07:53:17.432Z,23744.00
2019-06-10T07:54:17.409Z,23296.00
2019-06-10T07:55:17.359Z,33152.00
2019-06-10T07:56:17.432Z,51072.00
2019-06-10T07:57:17.346Z,65824.00
2019-06-10T07:58:17.413Z,21024.00
2019-06-10T07:59:17.680Z,21024.00
2019-06-10T08:00:18.302Z,81696.00
2019-06-10T08:01:17.483Z,97280.00
2019-06-10T08:03:22.306Z,64000.00
2019-06-10T08:04:22.510Z,26400.00
2019-06-10T08:05:19.443Z,51936.00
2019-06-10T08:06:19.454Z,71232.00
2019-06-10T08:07:19.632Z,87744.00
2019-06-10T08:08:19.796Z,89376.00
2019-06-10T08:09:19.793Z,59008.00
2019-06-10T08:11:26.635Z,24800.00
2019-06-10T08:12:26.860Z,27808.00
2019-06-10T08:13:26.506Z,48096.00
2019-06-10T08:15:22.873Z,29408.00
2019-06-10T08:16:20.179Z,23616.00
2019-06-10T08:17:22.251Z,83232.00
2019-06-10T08:18:22.402Z,78272.00
2019-06-10T08:19:31.591Z,28128.00
2019-06-10T08:20:22.253Z,23520.00
2019-06-10T08:21:22.699Z,26848.00
2019-06-10T08:22:31.196Z,21760.00
2019-06-10T08:23:23.364Z,22752.00
2019-06-10T08:24:22.140Z,21856.00
2019-06-10T08:25:22.860Z,18176.00
2019-06-10T08:26:20.165Z,18816.00
2019-06-10T08:27:22.571Z,22528.00
2019-06-10T08:28:22.661Z,75520.00
2019-06-10T08:29:23.224Z,35136.00
2019-06-10T08:30:26.660Z,27712.00
2019-06-10T08:31:22.594Z,26624.00
2019-06-10T08:32:21.286Z,99552.00
2019-06-10T08:33:22.491Z,32032.00
2019-06-10T08:34:22.214Z,28832.00
2019-06-10T08:35:35.009Z,29952.00
2019-06-10T08:36:03.930Z,30432.00
2019-06-10T08:37:04.288Z,98400.00
2019-06-10T08:38:02.535Z,49184.00
2019-06-10T08:39:03.183Z,94880.00
2019-06-10T08:40:03.765Z,34400.00
2019-06-10T08:41:03.242Z,79008.00
2019-06-10T08:42:03.210Z,123232.00
2019-06-10T08:43:04.239Z,37760.00
2019-06-10T08:44:02.635Z,79008.00
2019-06-10T08:45:03.508Z,34336.00
2019-06-10T08:46:02.751Z,27040.00
2019-06-10T08:47:03.087Z,118848.00
2019-06-10T08:48:03.493Z,123872.00
2019-06-10T08:49:03.169Z,42304.00
2019-06-10T08:50:02.608Z,28032.00
2019-06-10T08:51:03.941Z,29088.00
2019-06-10T08:52:02.820Z,32544.00
2019-06-10T08:53:13.542Z,43424.00
2019-06-10T08:54:03.473Z,25984.00
2019-06-10T08:55:03.412Z,20608.00
2019-06-10T08:56:02.871Z,22208.00
2019-06-10T08:57:04.324Z,121632.00
2019-06-10T08:58:02.758Z,35168.00
2019-06-10T08:59:03.270Z,53728.00
2019-06-10T09:00:07.054Z,20608.00
2019-06-10T09:01:03.003Z,50720.00
2019-06-10T09:02:02.971Z,129120.00
2019-06-10T09:03:04.093Z,32320.00
2019-06-10T09:04:03.066Z,31936.00
2019-06-10T09:05:03.618Z,26880.00
2019-06-10T09:06:02.788Z,28416.00
2019-06-10T09:07:04.187Z,103776.00
2019-06-10T09:08:02.869Z,134304.00
2019-06-10T09:09:03.168Z,134720.00
2019-06-10T09:10:02.999Z,27840.00
2019-06-10T09:11:02.488Z,30944.00
2019-06-10T09:12:03.589Z,33760.00
2019-06-10T09:13:02.765Z,133216.00
2019-06-10T09:14:02.600Z,32096.00
2019-06-10T09:15:03.727Z,35200.00
2019-06-10T09:16:14.753Z,45024.00
2019-06-10T09:17:03.372Z,39456.00
2019-06-10T09:18:02.613Z,139264.00
2019-06-10T09:19:02.308Z,131040.00
2019-06-10T09:20:02.969Z,29568.00
2019-06-10T09:21:02.304Z,32640.00
2019-06-10T09:22:03.473Z,33248.00
2019-06-10T09:23:18.419Z,92000.00
2019-06-10T09:24:03.914Z,38176.00
2019-06-10T09:25:02.924Z,32352.00
2019-06-10T09:26:03.635Z,33056.00
2019-06-10T09:27:02.934Z,44640.00
2019-06-10T09:28:02.395Z,53696.00
2019-06-10T09:29:02.929Z,37952.00
2019-06-10T09:30:02.958Z,96480.00
2019-06-10T09:31:04.226Z,131584.00
2019-06-10T09:32:02.178Z,42144.00
2019-06-10T09:33:04.260Z,48224.00
2019-06-10T09:34:03.910Z,33312.00
2019-06-10T09:35:03.370Z,117856.00
2019-06-10T09:36:03.265Z,146144.00
2019-06-10T09:37:03.528Z,53792.00
2019-06-10T09:38:03.690Z,47776.00
2019-06-10T09:39:03.978Z,35424.00
2019-06-10T09:40:03.475Z,33216.00
2019-06-10T09:41:05.688Z,53696.00
2019-06-10T09:42:06.206Z,110656.00
2019-06-10T09:43:02.617Z,131872.00
2019-06-10T09:44:03.200Z,37920.00
2019-06-10T09:45:02.586Z,56320.00
2019-06-10T09:46:03.481Z,37088.00
2019-06-10T09:47:03.428Z,58784.00
2019-06-10T09:48:03.946Z,147872.00
2019-06-10T09:49:02.205Z,36640.00
2019-06-10T09:50:03.205Z,40640.00
2019-06-10T09:51:02.519Z,115744.00
2019-06-10T09:52:03.307Z,115808.00
2019-06-10T09:53:03.964Z,45408.00
2019-06-10T09:54:06.133Z,42912.00
2019-06-10T09:55:03.235Z,56992.00
2019-06-10T09:56:04.119Z,55232.00
2019-06-10T09:57:02.392Z,59360.00
2019-06-10T09:58:03.202Z,108032.00
2019-06-10T09:59:03.743Z,43136.00
2019-06-10T10:00:04.062Z,91392.00
2019-06-10T10:01:03.216Z,50880.00
2019-06-10T10:02:03.614Z,35520.00
2019-06-10T10:03:03.349Z,34912.00
2019-06-10T10:04:01.420Z,39616.00
2019-06-10T10:05:01.294Z,37888.00
2019-06-10T10:06:11.550Z,36512.00
2019-06-10T10:07:03.119Z,39296.00
2019-06-10T10:08:01.315Z,38624.00
2019-06-10T10:09:03.961Z,33536.00
2019-06-10T10:10:04.199Z,31584.00
2019-06-10T10:11:01.237Z,30784.00
2019-06-10T10:12:02.993Z,28416.00
2019-06-10T10:13:02.728Z,33120.00
2019-06-10T10:14:06.466Z,141216.00
2019-06-10T10:15:22.026Z,85728.00
2019-06-10T10:16:02.708Z,34400.00
2019-06-10T10:17:04.465Z,32128.00
2019-06-10T10:18:02.463Z,33920.00
2019-06-10T10:19:05.137Z,136320.00
2019-06-10T10:20:03.179Z,48768.00
2019-06-10T10:21:03.714Z,146496.00
2019-06-10T10:22:03.028Z,44096.00
2019-06-10T10:23:02.703Z,149248.00
2019-06-10T10:24:08.011Z,45088.00
2019-06-10T10:25:02.994Z,145792.00
2019-06-10T10:26:03.469Z,147936.00
2019-06-10T10:27:02.692Z,35744.00
2019-06-10T10:28:03.197Z,38880.00
2019-06-10T10:29:02.814Z,48480.00
2019-06-10T10:30:03.365Z,41824.00
2019-06-10T10:31:03.542Z,46880.00
2019-06-10T10:32:02.595Z,33440.00
2019-06-10T10:33:02.872Z,37504.00
2019-06-10T10:34:02.728Z,44544.00
2019-06-10T10:35:03.082Z,107872.00
2019-06-10T10:36:02.885Z,39584.00
2019-06-10T10:37:02.893Z,128992.00
2019-06-10T10:38:03.717Z,37888.00
2019-06-10T10:39:02.430Z,37984.00
2019-06-10T10:40:03.225Z,41344.00
2019-06-10T10:41:04.215Z,143520.00
2019-06-10T10:42:03.126Z,31520.00
2019-06-10T10:43:22.982Z,32736.00
2019-06-10T10:44:03.132Z,40320.00
2019-06-10T10:45:02.754Z,43584.00
2019-06-10T10:46:05.262Z,50400.00
2019-06-10T10:47:03.682Z,40960.00
2019-06-10T10:48:02.519Z,30848.00
2019-06-10T10:49:02.668Z,33184.00
2019-06-10T10:50:02.828Z,80608.00
2019-06-10T10:51:03.487Z,34784.00
2019-06-10T10:52:02.682Z,34240.00
2019-06-10T10:53:00.792Z,105728.00
2019-06-10T10:54:20.846Z,86496.00
2019-06-10T10:55:06.582Z,32512.00
2019-06-10T10:56:02.369Z,40928.00
2019-06-10T10:57:02.669Z,112800.00
2019-06-10T10:58:03.010Z,132064.00
2019-06-10T10:59:02.118Z,130272.00
2019-06-10T11:00:03.001Z,141440.00
2019-06-10T11:01:04.282Z,68832.00
2019-06-10T11:02:02.322Z,136064.00
2019-06-10T11:03:02.886Z,32480.00
2019-06-10T11:04:03.054Z,37088.00
2019-06-10T11:05:07.764Z,148960.00
2019-06-10T11:06:01.262Z,151712.00
2019-06-10T11:07:01.257Z,138240.00
2019-06-10T11:08:00.694Z,40480.00
2019-06-10T11:09:01.280Z,116160.00
2019-06-10T11:10:00.592Z,143808.00
2019-06-10T11:11:01.756Z,138752.00
2019-06-10T11:12:02.708Z,50144.00
2019-06-10T11:13:02.347Z,62432.00
2019-06-10T11:14:03.305Z,119488.00
2019-06-10T11:15:02.885Z,36032.00
2019-06-10T11:16:00.522Z,40000.00
2019-06-10T11:17:02.799Z,121248.00
2019-06-10T11:18:01.431Z,90816.00
2019-06-10T11:19:02.568Z,37632.00
2019-06-10T11:20:00.479Z,34336.00
2019-06-10T11:21:04.331Z,41088.00
2019-06-10T11:22:02.816Z,70048.00
2019-06-10T11:23:02.749Z,52480.00
2019-06-10T11:24:04.454Z,50656.00
2019-06-10T11:25:00.419Z,62624.00
2019-06-10T11:26:00.407Z,127392.00
2019-06-10T11:27:02.986Z,48608.00
2019-06-10T11:28:03.386Z,83840.00
2019-06-10T11:29:02.972Z,35040.00
2019-06-10T11:30:02.436Z,33568.00
2019-06-10T11:31:00.361Z,39936.00
2019-06-10T11:32:02.444Z,32672.00
2019-06-10T11:33:03.051Z,39264.00
2019-06-10T11:34:00.319Z,118656.00
2019-06-10T11:35:02.789Z,40256.00
2019-06-10T11:36:02.654Z,49312.00
2019-06-10T11:37:02.300Z,40416.00
2019-06-10T11:38:03.271Z,59936.00
2019-06-10T11:39:02.673Z,41888.00
2019-06-10T11:40:02.638Z,47040.00
2019-06-10T11:41:00.277Z,89472.00
2019-06-10T11:42:02.232Z,65440.00
2019-06-10T11:43:01.094Z,52256.00
2019-06-10T11:44:00.250Z,39488.00
2019-06-10T11:45:02.777Z,91904.00
2019-06-10T11:46:06.813Z,28224.00
2019-06-10T11:47:03.144Z,25376.00
2019-06-10T11:48:02.354Z,23616.00
2019-06-10T11:49:00.159Z,28160.00
2019-06-10T11:50:03.286Z,33088.00
2019-06-10T11:51:04.272Z,37248.00
2019-06-10T11:52:00.133Z,132288.00
2019-06-10T11:53:07.190Z,39264.00
2019-06-10T11:54:00.090Z,50624.00
2019-06-10T11:55:11.658Z,31584.00
2019-06-10T11:56:02.388Z,34176.00
2019-06-10T11:57:00.143Z,85248.00
2019-06-10T11:58:00.118Z,65088.00
2019-06-10T11:59:09.161Z,28736.00
2019-06-10T12:00:05.337Z,28352.00
2019-06-10T12:01:03.903Z,25472.00
2019-06-10T12:02:05.499Z,28736.00
2019-06-10T12:03:03.524Z,42912.00
2019-06-10T12:04:03.519Z,37440.00
2019-06-10T12:05:06.911Z,41056.00
2019-06-10T12:06:02.036Z,61024.00
2019-06-10T12:07:02.381Z,120480.00
2019-06-10T12:08:01.929Z,63872.00
2019-06-10T12:09:02.807Z,30912.00
2019-06-10T12:10:01.242Z,30048.00
2019-06-10T12:11:02.275Z,30208.00
2019-06-10T12:12:02.291Z,27424.00
2019-06-10T12:13:04.243Z,23104.00